sensor_id;sensor_type;location;lat;lon;timestamp;P1;durP1;ratioP1;P2;durP2;ratioP2
46439;SDS011;32138;50.966;6.968;2022-08-26T00:00:57;8.48;;;7.07;;
46439;SDS011;32138;50.966;6.968;2022-08-26T00:02:58;10.07;;;6.75;;
46439;SDS011;32138;50.966;6.968;2022-08-26T00:04:59;12.55;;;7.25;;
46439;SDS011;32138;50.966;6.968;2022-08-26T00:07:00;9.73;;;7.00;;
46439;SDS011;32138;50.966;6.968;2022-08-26T00:09:01;7.47;;;6.05;;
46439;SDS011;32138;50.966;6.968;2022-08-26T00:11:03;11.10;;;6.43;;
46439;SDS011;32138;50.966;6.968;2022-08-26T00:13:05;8.77;;;6.45;;
46439;SDS011;32138;50.966;6.968;2022-08-26T00:15:07;11.80;;;6.22;;
46439;SDS011;32138;50.966;6.968;2022-08-26T00:17:11;11.43;;;6.20;;
46439;SDS011;32138;50.966;6.968;2022-08-26T00:19:11;12.68;;;5.95;;
46439;SDS011;32138;50.966;6.968;2022-08-26T00:21:12;14.52;;;6.82;;
46439;SDS011;32138;50.966;6.968;2022-08-26T00:23:13;15.52;;;6.50;;
46439;SDS011;32138;50.966;6.968;2022-08-26T00:25:14;15.95;;;7.10;;
46439;SDS011;32138;50.966;6.968;2022-08-26T00:27:15;13.40;;;8.02;;
46439;SDS011;32138;50.966;6.968;2022-08-26T00:29:16;14.05;;;7.45;;
46439;SDS011;32138;50.966;6.968;2022-08-26T00:31:17;17.92;;;9.25;;
46439;SDS011;32138;50.966;6.968;2022-08-26T00:33:18;16.95;;;11.45;;
46439;SDS011;32138;50.966;6.968;2022-08-26T00:35:19;12.40;;;11.07;;
46439;SDS011;32138;50.966;6.968;2022-08-26T00:37:21;15.52;;;13.20;;
46439;SDS011;32138;50.966;6.968;2022-08-26T00:39:22;18.50;;;14.00;;
46439;SDS011;32138;50.966;6.968;2022-08-26T00:41:23;16.52;;;14.80;;
46439;SDS011;32138;50.966;6.968;2022-08-26T00:43:24;22.65;;;17.45;;
46439;SDS011;32138;50.966;6.968;2022-08-26T00:45:26;19.45;;;16.15;;
46439;SDS011;32138;50.966;6.968;2022-08-26T00:47:32;16.80;;;14.00;;
46439;SDS011;32138;50.966;6.968;2022-08-26T00:49:38;18.92;;;17.20;;
46439;SDS011;32138;50.966;6.968;2022-08-26T00:51:44;25.38;;;21.98;;
46439;SDS011;32138;50.966;6.968;2022-08-26T00:53:55;24.80;;;22.40;;
46439;SDS011;32138;50.966;6.968;2022-08-26T00:58:40;27.52;;;24.90;;
46439;SDS011;32138;50.966;6.968;2022-08-26T01:00:42;30.48;;;27.25;;
46439;SDS011;32138;50.966;6.968;2022-08-26T01:02:43;27.65;;;24.70;;
46439;SDS011;32138;50.966;6.968;2022-08-26T01:04:48;35.75;;;32.17;;
46439;SDS011;32138;50.966;6.968;2022-08-26T01:06:53;35.40;;;31.67;;
46439;SDS011;32138;50.966;6.968;2022-08-26T01:08:54;34.33;;;30.88;;
46439;SDS011;32138;50.966;6.968;2022-08-26T01:10:55;32.42;;;29.27;;
46439;SDS011;32138;50.966;6.968;2022-08-26T01:12:59;34.92;;;31.50;;
46439;SDS011;32138;50.966;6.968;2022-08-26T01:15:05;38.38;;;34.70;;
46439;SDS011;32138;50.966;6.968;2022-08-26T01:17:08;33.15;;;29.90;;
46439;SDS011;32138;50.966;6.968;2022-08-26T01:19:13;39.10;;;35.08;;
46439;SDS011;32138;50.966;6.968;2022-08-26T01:21:28;38.20;;;34.45;;
46439;SDS011;32138;50.966;6.968;2022-08-26T01:23:53;43.17;;;38.92;;
46439;SDS011;32138;50.966;6.968;2022-08-26T01:25:58;42.60;;;38.42;;
46439;SDS011;32138;50.966;6.968;2022-08-26T01:28:25;47.58;;;42.92;;
46439;SDS011;32138;50.966;6.968;2022-08-26T01:30:31;50.20;;;45.28;;
46439;SDS011;32138;50.966;6.968;2022-08-26T01:32:33;51.25;;;46.35;;
46439;SDS011;32138;50.966;6.968;2022-08-26T01:34:36;48.88;;;43.97;;
46439;SDS011;32138;50.966;6.968;2022-08-26T01:36:38;55.58;;;50.33;;
46439;SDS011;32138;50.966;6.968;2022-08-26T01:38:40;54.28;;;48.88;;
46439;SDS011;32138;50.966;6.968;2022-08-26T01:40:42;53.50;;;48.63;;
46439;SDS011;32138;50.966;6.968;2022-08-26T01:42:44;57.00;;;51.55;;
46439;SDS011;32138;50.966;6.968;2022-08-26T01:44:49;60.95;;;55.17;;
46439;SDS011;32138;50.966;6.968;2022-08-26T01:46:56;57.40;;;51.92;;
46439;SDS011;32138;50.966;6.968;2022-08-26T01:48:59;66.65;;;60.30;;
46439;SDS011;32138;50.966;6.968;2022-08-26T01:51:03;60.95;;;55.08;;
46439;SDS011;32138;50.966;6.968;2022-08-26T01:53:09;60.05;;;54.47;;
46439;SDS011;32138;50.966;6.968;2022-08-26T01:55:14;64.13;;;58.45;;
46439;SDS011;32138;50.966;6.968;2022-08-26T01:57:18;57.90;;;52.65;;
46439;SDS011;32138;50.966;6.968;2022-08-26T01:59:20;63.50;;;57.55;;
46439;SDS011;32138;50.966;6.968;2022-08-26T02:01:23;63.25;;;57.08;;
46439;SDS011;32138;50.966;6.968;2022-08-26T02:03:26;61.33;;;55.40;;
46439;SDS011;32138;50.966;6.968;2022-08-26T02:05:27;61.00;;;55.40;;
46439;SDS011;32138;50.966;6.968;2022-08-26T02:07:28;61.78;;;55.53;;
46439;SDS011;32138;50.966;6.968;2022-08-26T02:09:32;56.03;;;50.78;;
46439;SDS011;32138;50.966;6.968;2022-08-26T02:11:37;63.45;;;57.65;;
46439;SDS011;32138;50.966;6.968;2022-08-26T02:13:42;68.90;;;62.83;;
46439;SDS011;32138;50.966;6.968;2022-08-26T02:15:46;58.85;;;53.22;;
46439;SDS011;32138;50.966;6.968;2022-08-26T02:17:47;57.65;;;52.30;;
46439;SDS011;32138;50.966;6.968;2022-08-26T02:19:48;56.63;;;51.30;;
46439;SDS011;32138;50.966;6.968;2022-08-26T02:21:50;56.30;;;50.85;;
46439;SDS011;32138;50.966;6.968;2022-08-26T02:23:52;59.97;;;54.47;;
46439;SDS011;32138;50.966;6.968;2022-08-26T02:28:15;58.90;;;53.33;;
46439;SDS011;32138;50.966;6.968;2022-08-26T02:30:17;53.97;;;48.53;;
46439;SDS011;32138;50.966;6.968;2022-08-26T02:32:23;57.45;;;52.03;;
46439;SDS011;32138;50.966;6.968;2022-08-26T02:34:28;53.50;;;48.50;;
46439;SDS011;32138;50.966;6.968;2022-08-26T02:36:31;54.90;;;50.13;;
46439;SDS011;32138;50.966;6.968;2022-08-26T02:38:31;53.35;;;48.00;;
46439;SDS011;32138;50.966;6.968;2022-08-26T02:40:34;55.75;;;50.25;;
46439;SDS011;32138;50.966;6.968;2022-08-26T02:42:39;51.40;;;46.88;;
46439;SDS011;32138;50.966;6.968;2022-08-26T02:44:40;51.15;;;46.17;;
46439;SDS011;32138;50.966;6.968;2022-08-26T02:46:41;53.92;;;48.85;;
46439;SDS011;32138;50.966;6.968;2022-08-26T02:48:41;53.53;;;48.05;;
46439;SDS011;32138;50.966;6.968;2022-08-26T02:50:42;52.05;;;46.53;;
46439;SDS011;32138;50.966;6.968;2022-08-26T02:52:43;52.50;;;47.40;;
46439;SDS011;32138;50.966;6.968;2022-08-26T02:54:44;52.10;;;47.20;;
46439;SDS011;32138;50.966;6.968;2022-08-26T02:56:45;47.13;;;42.13;;
46439;SDS011;32138;50.966;6.968;2022-08-26T02:58:47;49.20;;;44.60;;
46439;SDS011;32138;50.966;6.968;2022-08-26T03:00:47;49.80;;;44.97;;
46439;SDS011;32138;50.966;6.968;2022-08-26T03:02:48;49.28;;;44.00;;
46439;SDS011;32138;50.966;6.968;2022-08-26T03:04:49;145.32;;;132.30;;
46439;SDS011;32138;50.966;6.968;2022-08-26T03:06:50;59.95;;;54.17;;
46439;SDS011;32138;50.966;6.968;2022-08-26T03:08:50;53.72;;;48.10;;
46439;SDS011;32138;50.966;6.968;2022-08-26T03:10:51;49.45;;;44.85;;
46439;SDS011;32138;50.966;6.968;2022-08-26T03:12:52;49.50;;;44.53;;
46439;SDS011;32138;50.966;6.968;2022-08-26T03:14:53;47.88;;;43.17;;
46439;SDS011;32138;50.966;6.968;2022-08-26T03:16:55;50.97;;;46.15;;
46439;SDS011;32138;50.966;6.968;2022-08-26T03:18:55;47.95;;;43.53;;
46439;SDS011;32138;50.966;6.968;2022-08-26T03:20:56;48.40;;;43.58;;
46439;SDS011;32138;50.966;6.968;2022-08-26T03:22:58;45.05;;;41.08;;
46439;SDS011;32138;50.966;6.968;2022-08-26T03:24:59;44.05;;;39.95;;
46439;SDS011;32138;50.966;6.968;2022-08-26T03:27:01;44.72;;;40.17;;
46439;SDS011;32138;50.966;6.968;2022-08-26T03:29:02;50.00;;;45.13;;
46439;SDS011;32138;50.966;6.968;2022-08-26T03:31:22;44.25;;;39.42;;
46439;SDS011;32138;50.966;6.968;2022-08-26T03:33:24;42.00;;;37.78;;
46439;SDS011;32138;50.966;6.968;2022-08-26T03:35:26;42.92;;;39.08;;
46439;SDS011;32138;50.966;6.968;2022-08-26T03:37:27;43.63;;;39.10;;
46439;SDS011;32138;50.966;6.968;2022-08-26T03:39:27;43.00;;;38.47;;
46439;SDS011;32138;50.966;6.968;2022-08-26T03:41:28;43.75;;;39.45;;
46439;SDS011;32138;50.966;6.968;2022-08-26T03:43:31;41.45;;;37.28;;
46439;SDS011;32138;50.966;6.968;2022-08-26T03:45:32;41.30;;;37.05;;
46439;SDS011;32138;50.966;6.968;2022-08-26T03:47:33;43.25;;;38.67;;
46439;SDS011;32138;50.966;6.968;2022-08-26T03:49:34;46.80;;;42.05;;
46439;SDS011;32138;50.966;6.968;2022-08-26T03:51:36;43.45;;;38.72;;
46439;SDS011;32138;50.966;6.968;2022-08-26T03:53:37;42.17;;;37.83;;
46439;SDS011;32138;50.966;6.968;2022-08-26T03:55:37;42.58;;;38.05;;
46439;SDS011;32138;50.966;6.968;2022-08-26T03:57:39;44.05;;;39.47;;
46439;SDS011;32138;50.966;6.968;2022-08-26T03:59:40;44.17;;;39.30;;
46439;SDS011;32138;50.966;6.968;2022-08-26T04:01:41;47.55;;;42.70;;
46439;SDS011;32138;50.966;6.968;2022-08-26T04:03:42;42.58;;;37.80;;
46439;SDS011;32138;50.966;6.968;2022-08-26T04:05:58;42.03;;;37.40;;
46439;SDS011;32138;50.966;6.968;2022-08-26T04:07:59;45.28;;;40.58;;
46439;SDS011;32138;50.966;6.968;2022-08-26T04:09:59;54.05;;;48.47;;
46439;SDS011;32138;50.966;6.968;2022-08-26T04:12:01;41.25;;;36.92;;
46439;SDS011;32138;50.966;6.968;2022-08-26T04:14:03;46.35;;;39.78;;
46439;SDS011;32138;50.966;6.968;2022-08-26T04:16:09;44.50;;;37.90;;
46439;SDS011;32138;50.966;6.968;2022-08-26T04:18:10;45.45;;;40.47;;
46439;SDS011;32138;50.966;6.968;2022-08-26T04:20:10;47.35;;;38.95;;
46439;SDS011;32138;50.966;6.968;2022-08-26T04:22:12;47.33;;;39.10;;
46439;SDS011;32138;50.966;6.968;2022-08-26T04:24:14;45.35;;;37.45;;
46439;SDS011;32138;50.966;6.968;2022-08-26T04:26:16;44.33;;;37.58;;
46439;SDS011;32138;50.966;6.968;2022-08-26T04:28:19;45.47;;;38.35;;
46439;SDS011;32138;50.966;6.968;2022-08-26T04:30:21;41.78;;;36.50;;
46439;SDS011;32138;50.966;6.968;2022-08-26T04:32:22;43.65;;;37.85;;
46439;SDS011;32138;50.966;6.968;2022-08-26T04:34:24;37.53;;;33.53;;
46439;SDS011;32138;50.966;6.968;2022-08-26T04:36:26;45.83;;;34.92;;
46439;SDS011;32138;50.966;6.968;2022-08-26T04:38:28;41.83;;;35.72;;
46439;SDS011;32138;50.966;6.968;2022-08-26T04:40:29;35.50;;;31.45;;
46439;SDS011;32138;50.966;6.968;2022-08-26T04:42:31;35.90;;;32.15;;
46439;SDS011;32138;50.966;6.968;2022-08-26T04:44:33;44.17;;;32.63;;
46439;SDS011;32138;50.966;6.968;2022-08-26T04:46:35;34.03;;;30.52;;
46439;SDS011;32138;50.966;6.968;2022-08-26T04:48:36;34.53;;;30.83;;
46439;SDS011;32138;50.966;6.968;2022-08-26T04:50:37;33.67;;;28.08;;
46439;SDS011;32138;50.966;6.968;2022-08-26T04:52:38;37.08;;;30.13;;
46439;SDS011;32138;50.966;6.968;2022-08-26T04:54:39;36.13;;;32.35;;
46439;SDS011;32138;50.966;6.968;2022-08-26T04:56:42;30.83;;;25.80;;
46439;SDS011;32138;50.966;6.968;2022-08-26T04:58:45;33.97;;;30.08;;
46439;SDS011;32138;50.966;6.968;2022-08-26T05:00:48;29.50;;;26.48;;
46439;SDS011;32138;50.966;6.968;2022-08-26T05:02:51;34.30;;;26.55;;
46439;SDS011;32138;50.966;6.968;2022-08-26T05:04:52;28.13;;;24.63;;
46439;SDS011;32138;50.966;6.968;2022-08-26T05:06:53;36.70;;;24.95;;
46439;SDS011;32138;50.966;6.968;2022-08-26T05:08:54;28.13;;;25.13;;
46439;SDS011;32138;50.966;6.968;2022-08-26T05:10:55;29.38;;;26.35;;
46439;SDS011;32138;50.966;6.968;2022-08-26T05:12:56;28.30;;;23.45;;
46439;SDS011;32138;50.966;6.968;2022-08-26T05:14:59;27.08;;;24.35;;
46439;SDS011;32138;50.966;6.968;2022-08-26T05:17:00;28.42;;;24.23;;
46439;SDS011;32138;50.966;6.968;2022-08-26T05:19:01;25.58;;;21.58;;
46439;SDS011;32138;50.966;6.968;2022-08-26T05:21:06;27.40;;;23.55;;
46439;SDS011;32138;50.966;6.968;2022-08-26T05:23:06;23.38;;;21.17;;
46439;SDS011;32138;50.966;6.968;2022-08-26T05:25:08;28.15;;;22.83;;
46439;SDS011;32138;50.966;6.968;2022-08-26T05:27:09;29.90;;;24.75;;
46439;SDS011;32138;50.966;6.968;2022-08-26T05:29:10;27.60;;;22.92;;
46439;SDS011;32138;50.966;6.968;2022-08-26T05:31:14;26.20;;;23.33;;
46439;SDS011;32138;50.966;6.968;2022-08-26T05:33:20;24.45;;;22.02;;
46439;SDS011;32138;50.966;6.968;2022-08-26T05:35:22;27.65;;;23.90;;
46439;SDS011;32138;50.966;6.968;2022-08-26T05:37:27;26.80;;;23.85;;
46439;SDS011;32138;50.966;6.968;2022-08-26T05:39:28;28.55;;;19.45;;
46439;SDS011;32138;50.966;6.968;2022-08-26T05:41:32;24.83;;;19.67;;
46439;SDS011;32138;50.966;6.968;2022-08-26T05:43:36;26.42;;;21.30;;
46439;SDS011;32138;50.966;6.968;2022-08-26T05:45:40;28.55;;;20.73;;
46439;SDS011;32138;50.966;6.968;2022-08-26T05:47:47;24.15;;;20.63;;
46439;SDS011;32138;50.966;6.968;2022-08-26T05:49:48;25.15;;;19.67;;
46439;SDS011;32138;50.966;6.968;2022-08-26T05:51:48;22.67;;;19.52;;
46439;SDS011;32138;50.966;6.968;2022-08-26T05:53:49;23.02;;;19.58;;
46439;SDS011;32138;50.966;6.968;2022-08-26T05:55:51;28.20;;;17.63;;
46439;SDS011;32138;50.966;6.968;2022-08-26T05:57:54;21.13;;;17.58;;
46439;SDS011;32138;50.966;6.968;2022-08-26T05:59:55;24.73;;;17.63;;
46439;SDS011;32138;50.966;6.968;2022-08-26T06:01:56;27.58;;;18.20;;
46439;SDS011;32138;50.966;6.968;2022-08-26T06:04:00;22.15;;;17.00;;
46439;SDS011;32138;50.966;6.968;2022-08-26T06:06:02;19.58;;;17.17;;
46439;SDS011;32138;50.966;6.968;2022-08-26T06:08:08;20.58;;;16.85;;
46439;SDS011;32138;50.966;6.968;2022-08-26T06:10:15;23.02;;;17.63;;
46439;SDS011;32138;50.966;6.968;2022-08-26T06:12:15;26.88;;;19.27;;
46439;SDS011;32138;50.966;6.968;2022-08-26T06:14:16;24.85;;;18.70;;
46439;SDS011;32138;50.966;6.968;2022-08-26T06:16:18;22.20;;;14.82;;
46439;SDS011;32138;50.966;6.968;2022-08-26T06:18:23;20.83;;;15.10;;
46439;SDS011;32138;50.966;6.968;2022-08-26T06:20:31;19.20;;;14.68;;
46439;SDS011;32138;50.966;6.968;2022-08-26T06:22:32;20.23;;;15.18;;
46439;SDS011;32138;50.966;6.968;2022-08-26T06:24:51;20.33;;;16.70;;
46439;SDS011;32138;50.966;6.968;2022-08-26T06:27:13;21.50;;;15.60;;
46439;SDS011;32138;50.966;6.968;2022-08-26T06:29:14;21.52;;;15.35;;
46439;SDS011;32138;50.966;6.968;2022-08-26T06:31:16;21.67;;;13.45;;
46439;SDS011;32138;50.966;6.968;2022-08-26T06:33:17;16.55;;;12.77;;
46439;SDS011;32138;50.966;6.968;2022-08-26T06:35:18;19.45;;;13.68;;
46439;SDS011;32138;50.966;6.968;2022-08-26T06:37:19;16.20;;;14.10;;
46439;SDS011;32138;50.966;6.968;2022-08-26T06:39:20;18.02;;;12.38;;
46439;SDS011;32138;50.966;6.968;2022-08-26T06:41:21;22.30;;;13.38;;
46439;SDS011;32138;50.966;6.968;2022-08-26T06:43:24;16.48;;;11.98;;
46439;SDS011;32138;50.966;6.968;2022-08-26T06:45:26;16.63;;;13.45;;
46439;SDS011;32138;50.966;6.968;2022-08-26T06:47:27;14.02;;;11.13;;
46439;SDS011;32138;50.966;6.968;2022-08-26T06:49:28;19.00;;;11.30;;
46439;SDS011;32138;50.966;6.968;2022-08-26T06:51:29;20.98;;;12.35;;
46439;SDS011;32138;50.966;6.968;2022-08-26T06:53:34;14.20;;;11.88;;
46439;SDS011;32138;50.966;6.968;2022-08-26T06:55:40;19.88;;;13.18;;
46439;SDS011;32138;50.966;6.968;2022-08-26T06:57:43;19.77;;;13.60;;
46439;SDS011;32138;50.966;6.968;2022-08-26T06:59:44;15.70;;;11.88;;
46439;SDS011;32138;50.966;6.968;2022-08-26T07:01:45;22.85;;;13.13;;
46439;SDS011;32138;50.966;6.968;2022-08-26T07:03:46;17.75;;;14.23;;
46439;SDS011;32138;50.966;6.968;2022-08-26T07:05:48;16.88;;;12.88;;
46439;SDS011;32138;50.966;6.968;2022-08-26T07:07:49;16.73;;;12.57;;
46439;SDS011;32138;50.966;6.968;2022-08-26T07:09:51;18.80;;;11.88;;
46439;SDS011;32138;50.966;6.968;2022-08-26T07:11:52;15.13;;;11.00;;
46439;SDS011;32138;50.966;6.968;2022-08-26T07:13:55;16.00;;;10.63;;
46439;SDS011;32138;50.966;6.968;2022-08-26T07:15:57;18.30;;;11.10;;
46439;SDS011;32138;50.966;6.968;2022-08-26T07:17:58;20.95;;;13.10;;
46439;SDS011;32138;50.966;6.968;2022-08-26T07:19:59;15.30;;;11.63;;
46439;SDS011;32138;50.966;6.968;2022-08-26T07:22:02;13.18;;;11.52;;
46439;SDS011;32138;50.966;6.968;2022-08-26T07:24:05;18.58;;;12.68;;
46439;SDS011;32138;50.966;6.968;2022-08-26T07:26:08;14.40;;;11.45;;
46439;SDS011;32138;50.966;6.968;2022-08-26T07:28:19;16.83;;;11.88;;
46439;SDS011;32138;50.966;6.968;2022-08-26T07:30:21;15.50;;;11.30;;
46439;SDS011;32138;50.966;6.968;2022-08-26T07:32:22;16.80;;;13.48;;
46439;SDS011;32138;50.966;6.968;2022-08-26T07:34:23;16.70;;;12.48;;
46439;SDS011;32138;50.966;6.968;2022-08-26T07:36:24;19.00;;;11.23;;
46439;SDS011;32138;50.966;6.968;2022-08-26T07:38:27;17.15;;;12.35;;
46439;SDS011;32138;50.966;6.968;2022-08-26T07:40:28;14.88;;;12.20;;
46439;SDS011;32138;50.966;6.968;2022-08-26T07:42:29;20.58;;;12.70;;
46439;SDS011;32138;50.966;6.968;2022-08-26T07:44:30;20.05;;;12.65;;
46439;SDS011;32138;50.966;6.968;2022-08-26T07:46:30;16.33;;;11.90;;
46439;SDS011;32138;50.966;6.968;2022-08-26T07:48:31;19.83;;;14.25;;
46439;SDS011;32138;50.966;6.968;2022-08-26T07:50:33;21.00;;;13.15;;
46439;SDS011;32138;50.966;6.968;2022-08-26T07:52:34;30.88;;;26.67;;
46439;SDS011;32138;50.966;6.968;2022-08-26T07:54:37;16.95;;;13.05;;
46439;SDS011;32138;50.966;6.968;2022-08-26T07:56:39;16.63;;;12.48;;
46439;SDS011;32138;50.966;6.968;2022-08-26T07:58:40;16.83;;;13.68;;
46439;SDS011;32138;50.966;6.968;2022-08-26T08:00:41;18.20;;;13.77;;
46439;SDS011;32138;50.966;6.968;2022-08-26T08:02:42;18.27;;;14.65;;
46439;SDS011;32138;50.966;6.968;2022-08-26T08:04:44;19.27;;;14.35;;
46439;SDS011;32138;50.966;6.968;2022-08-26T08:06:44;20.52;;;16.13;;
46439;SDS011;32138;50.966;6.968;2022-08-26T08:08:45;17.35;;;15.15;;
46439;SDS011;32138;50.966;6.968;2022-08-26T08:10:47;18.92;;;16.08;;
46439;SDS011;32138;50.966;6.968;2022-08-26T08:12:52;22.77;;;17.77;;
46439;SDS011;32138;50.966;6.968;2022-08-26T08:14:54;19.83;;;17.50;;
46439;SDS011;32138;50.966;6.968;2022-08-26T08:16:55;21.38;;;16.98;;
46439;SDS011;32138;50.966;6.968;2022-08-26T08:18:56;18.58;;;16.52;;
46439;SDS011;32138;50.966;6.968;2022-08-26T08:20:57;17.85;;;16.00;;
46439;SDS011;32138;50.966;6.968;2022-08-26T08:23:01;18.20;;;14.98;;
46439;SDS011;32138;50.966;6.968;2022-08-26T08:25:03;16.25;;;14.60;;
46439;SDS011;32138;50.966;6.968;2022-08-26T08:27:06;18.27;;;12.93;;
46439;SDS011;32138;50.966;6.968;2022-08-26T08:29:07;20.85;;;13.73;;
46439;SDS011;32138;50.966;6.968;2022-08-26T08:31:08;20.08;;;14.98;;
46439;SDS011;32138;50.966;6.968;2022-08-26T08:33:17;16.50;;;14.50;;
46439;SDS011;32138;50.966;6.968;2022-08-26T08:35:18;19.52;;;15.80;;
46439;SDS011;32138;50.966;6.968;2022-08-26T08:37:21;18.40;;;15.13;;
46439;SDS011;32138;50.966;6.968;2022-08-26T08:39:23;21.02;;;15.65;;
46439;SDS011;32138;50.966;6.968;2022-08-26T08:43:54;18.73;;;13.73;;
46439;SDS011;32138;50.966;6.968;2022-08-26T08:46:06;20.80;;;15.07;;
46439;SDS011;32138;50.966;6.968;2022-08-26T08:48:29;18.48;;;14.88;;
46439;SDS011;32138;50.966;6.968;2022-08-26T08:50:51;18.60;;;14.77;;
46439;SDS011;32138;50.966;6.968;2022-08-26T08:53:18;16.45;;;14.57;;
46439;SDS011;32138;50.966;6.968;2022-08-26T08:55:35;16.63;;;14.75;;
46439;SDS011;32138;50.966;6.968;2022-08-26T09:00:10;14.93;;;13.52;;
46439;SDS011;32138;50.966;6.968;2022-08-26T09:02:17;15.73;;;14.20;;
46439;SDS011;32138;50.966;6.968;2022-08-26T09:06:51;17.45;;;12.10;;
46439;SDS011;32138;50.966;6.968;2022-08-26T09:08:55;18.08;;;12.30;;
46439;SDS011;32138;50.966;6.968;2022-08-26T09:11:00;16.70;;;13.80;;
46439;SDS011;32138;50.966;6.968;2022-08-26T09:13:06;17.25;;;15.00;;
46439;SDS011;32138;50.966;6.968;2022-08-26T09:15:18;18.83;;;12.65;;
46439;SDS011;32138;50.966;6.968;2022-08-26T09:19:39;16.08;;;13.13;;
46439;SDS011;32138;50.966;6.968;2022-08-26T09:21:53;16.55;;;13.02;;
46439;SDS011;32138;50.966;6.968;2022-08-26T09:23:59;19.85;;;12.43;;
46439;SDS011;32138;50.966;6.968;2022-08-26T09:26:01;15.15;;;11.48;;
46439;SDS011;32138;50.966;6.968;2022-08-26T09:28:19;11.68;;;10.50;;
46439;SDS011;32138;50.966;6.968;2022-08-26T09:32:31;14.90;;;11.45;;
46439;SDS011;32138;50.966;6.968;2022-08-26T09:34:34;17.73;;;10.25;;
46439;SDS011;32138;50.966;6.968;2022-08-26T09:36:36;17.17;;;10.60;;
46439;SDS011;32138;50.966;6.968;2022-08-26T09:38:43;12.07;;;9.80;;
46439;SDS011;32138;50.966;6.968;2022-08-26T09:40:51;20.55;;;10.82;;
46439;SDS011;32138;50.966;6.968;2022-08-26T09:45:12;14.27;;;10.50;;
46439;SDS011;32138;50.966;6.968;2022-08-26T09:47:13;14.27;;;10.00;;
46439;SDS011;32138;50.966;6.968;2022-08-26T09:49:31;13.50;;;9.13;;
46439;SDS011;32138;50.966;6.968;2022-08-26T09:51:34;15.50;;;9.32;;
46439;SDS011;32138;50.966;6.968;2022-08-26T09:53:35;14.68;;;10.25;;
46439;SDS011;32138;50.966;6.968;2022-08-26T09:56:34;13.10;;;11.80;;
46439;SDS011;32138;50.966;6.968;2022-08-26T09:58:39;11.93;;;10.75;;
46439;SDS011;32138;50.966;6.968;2022-08-26T10:00:53;13.32;;;9.40;;
46439;SDS011;32138;50.966;6.968;2022-08-26T10:02:58;16.17;;;9.43;;
46439;SDS011;32138;50.966;6.968;2022-08-26T10:05:05;14.50;;;8.93;;
46439;SDS011;32138;50.966;6.968;2022-08-26T10:07:33;12.48;;;8.93;;
46439;SDS011;32138;50.966;6.968;2022-08-26T10:09:35;13.77;;;8.32;;
46439;SDS011;32138;50.966;6.968;2022-08-26T10:13:50;12.48;;;7.57;;
46439;SDS011;32138;50.966;6.968;2022-08-26T10:16:00;10.55;;;8.68;;
46439;SDS011;32138;50.966;6.968;2022-08-26T10:18:41;13.45;;;7.18;;
46439;SDS011;32138;50.966;6.968;2022-08-26T10:23:18;18.00;;;8.05;;
46439;SDS011;32138;50.966;6.968;2022-08-26T10:25:26;14.43;;;8.60;;
46439;SDS011;32138;50.966;6.968;2022-08-26T10:29:45;12.52;;;6.95;;
46439;SDS011;32138;50.966;6.968;2022-08-26T10:31:54;9.77;;;7.18;;
46439;SDS011;32138;50.966;6.968;2022-08-26T10:33:59;11.10;;;6.90;;
46439;SDS011;32138;50.966;6.968;2022-08-26T10:36:01;10.70;;;6.85;;
46439;SDS011;32138;50.966;6.968;2022-08-26T10:38:45;12.93;;;7.35;;
46439;SDS011;32138;50.966;6.968;2022-08-26T10:43:05;12.70;;;7.15;;
46439;SDS011;32138;50.966;6.968;2022-08-26T10:45:14;8.52;;;6.90;;
46439;SDS011;32138;50.966;6.968;2022-08-26T10:47:23;12.90;;;6.97;;
46439;SDS011;32138;50.966;6.968;2022-08-26T10:49:41;11.48;;;6.80;;
46439;SDS011;32138;50.966;6.968;2022-08-26T10:52:07;11.00;;;6.57;;
46439;SDS011;32138;50.966;6.968;2022-08-26T10:54:15;9.02;;;5.97;;
46439;SDS011;32138;50.966;6.968;2022-08-26T10:56:42;8.82;;;6.40;;
46439;SDS011;32138;50.966;6.968;2022-08-26T11:02:32;12.30;;;6.38;;
46439;SDS011;32138;50.966;6.968;2022-08-26T11:04:49;13.38;;;6.25;;
46439;SDS011;32138;50.966;6.968;2022-08-26T11:09:50;7.97;;;5.82;;
46439;SDS011;32138;50.966;6.968;2022-08-26T11:11:51;10.60;;;5.18;;
46439;SDS011;32138;50.966;6.968;2022-08-26T11:15:56;11.50;;;5.38;;
46439;SDS011;32138;50.966;6.968;2022-08-26T11:17:59;7.95;;;4.45;;
46439;SDS011;32138;50.966;6.968;2022-08-26T11:20:08;10.32;;;5.47;;
46439;SDS011;32138;50.966;6.968;2022-08-26T11:22:34;11.40;;;5.82;;
46439;SDS011;32138;50.966;6.968;2022-08-26T11:26:58;9.30;;;6.13;;
46439;SDS011;32138;50.966;6.968;2022-08-26T11:28:59;8.38;;;5.55;;
46439;SDS011;32138;50.966;6.968;2022-08-26T11:31:00;9.90;;;5.72;;
46439;SDS011;32138;50.966;6.968;2022-08-26T11:33:04;5.78;;;4.35;;
46439;SDS011;32138;50.966;6.968;2022-08-26T11:35:10;13.25;;;5.70;;
46439;SDS011;32138;50.966;6.968;2022-08-26T11:37:18;12.80;;;5.10;;
46439;SDS011;32138;50.966;6.968;2022-08-26T11:39:45;11.73;;;5.38;;
46439;SDS011;32138;50.966;6.968;2022-08-26T11:41:52;21.08;;;6.60;;
46439;SDS011;32138;50.966;6.968;2022-08-26T11:43:59;9.98;;;5.70;;
46439;SDS011;32138;50.966;6.968;2022-08-26T11:48:18;11.32;;;5.80;;
46439;SDS011;32138;50.966;6.968;2022-08-26T11:50:32;15.98;;;7.03;;
46439;SDS011;32138;50.966;6.968;2022-08-26T11:52:33;14.68;;;5.60;;
46439;SDS011;32138;50.966;6.968;2022-08-26T11:54:34;14.13;;;5.68;;
46439;SDS011;32138;50.966;6.968;2022-08-26T11:56:34;12.50;;;5.40;;
46439;SDS011;32138;50.966;6.968;2022-08-26T11:58:43;13.23;;;5.30;;
46439;SDS011;32138;50.966;6.968;2022-08-26T12:00:50;12.20;;;4.80;;
46439;SDS011;32138;50.966;6.968;2022-08-26T12:03:05;13.45;;;4.95;;
46439;SDS011;32138;50.966;6.968;2022-08-26T12:05:07;10.90;;;4.93;;
46439;SDS011;32138;50.966;6.968;2022-08-26T12:07:09;9.25;;;5.03;;
46439;SDS011;32138;50.966;6.968;2022-08-26T12:09:12;13.65;;;6.05;;
46439;SDS011;32138;50.966;6.968;2022-08-26T12:11:26;12.68;;;5.47;;
46439;SDS011;32138;50.966;6.968;2022-08-26T12:13:32;10.43;;;5.25;;
46439;SDS011;32138;50.966;6.968;2022-08-26T12:15:33;10.95;;;5.43;;
46439;SDS011;32138;50.966;6.968;2022-08-26T12:17:34;19.98;;;5.80;;
46439;SDS011;32138;50.966;6.968;2022-08-26T12:19:36;12.20;;;5.75;;
46439;SDS011;32138;50.966;6.968;2022-08-26T12:21:37;10.10;;;4.72;;
46439;SDS011;32138;50.966;6.968;2022-08-26T12:23:42;7.30;;;4.93;;
46439;SDS011;32138;50.966;6.968;2022-08-26T12:25:45;9.90;;;5.82;;
46439;SDS011;32138;50.966;6.968;2022-08-26T12:27:46;7.63;;;4.80;;
46439;SDS011;32138;50.966;6.968;2022-08-26T12:32:22;11.98;;;4.28;;
46439;SDS011;32138;50.966;6.968;2022-08-26T12:34:23;9.32;;;4.50;;
46439;SDS011;32138;50.966;6.968;2022-08-26T12:36:31;8.82;;;3.70;;
46439;SDS011;32138;50.966;6.968;2022-08-26T12:38:38;10.40;;;3.83;;
46439;SDS011;32138;50.966;6.968;2022-08-26T12:40:43;8.00;;;3.80;;
46439;SDS011;32138;50.966;6.968;2022-08-26T12:42:45;9.35;;;4.65;;
46439;SDS011;32138;50.966;6.968;2022-08-26T12:46:49;7.10;;;3.85;;
46439;SDS011;32138;50.966;6.968;2022-08-26T12:48:50;10.57;;;3.72;;
46439;SDS011;32138;50.966;6.968;2022-08-26T12:50:51;12.05;;;4.30;;
46439;SDS011;32138;50.966;6.968;2022-08-26T12:53:12;9.10;;;3.17;;
46439;SDS011;32138;50.966;6.968;2022-08-26T12:55:22;12.05;;;3.60;;
46439;SDS011;32138;50.966;6.968;2022-08-26T12:57:33;12.15;;;4.00;;